sensor_id;sensor_type;location;lat;lon;timestamp;pressure;altitude;pressure_sealevel;temperature;humidity
20710;BME280;10516;51.518;9.864;2024-02-16T00:00:05;98563.78;;;8.35;100.00
20710;BME280;10516;51.518;9.864;2024-02-16T00:02:30;98585.72;;;8.58;100.00
20710;BME280;10516;51.518;9.864;2024-02-16T00:04:57;98562.28;;;8.39;100.00
20710;BME280;10516;51.518;9.864;2024-02-16T00:07:23;98571.69;;;8.46;100.00
20710;BME280;10516;51.518;9.864;2024-02-16T00:09:49;98568.38;;;8.39;100.00
20710;BME280;10516;51.518;9.864;2024-02-16T00:12:14;98561.06;;;8.46;100.00
20710;BME280;10516;51.518;9.864;2024-02-16T00:14:40;98535.91;;;8.37;100.00
20710;BME280;10516;51.518;9.864;2024-02-16T00:17:05;98490.59;;;8.15;99.86
20710;BME280;10516;51.518;9.864;2024-02-16T00:19:32;98515.06;;;8.17;100.00
20710;BME280;10516;51.518;9.864;2024-02-16T00:21:57;98565.06;;;8.65;100.00
20710;BME280;10516;51.518;9.864;2024-02-16T00:24:23;98574.28;;;8.58;99.46
20710;BME280;10516;51.518;9.864;2024-02-16T00:26:48;98532.22;;;8.38;99.21
20710;BME280;10516;51.518;9.864;2024-02-16T00:29:14;98573.69;;;8.72;99.10
20710;BME280;10516;51.518;9.864;2024-02-16T00:31:40;98577.09;;;8.68;99.37
20710;BME280;10516;51.518;9.864;2024-02-16T00:34:05;98575.25;;;8.68;99.32
20710;BME280;10516;51.518;9.864;2024-02-16T00:36:31;98562.97;;;8.67;98.46
20710;BME280;10516;51.518;9.864;2024-02-16T00:38:59;98538.97;;;8.62;98.01
20710;BME280;10516;51.518;9.864;2024-02-16T00:41:24;98553.56;;;8.60;98.49
20710;BME280;10516;51.518;9.864;2024-02-16T00:43:50;98557.25;;;8.75;98.34
20710;BME280;10516;51.518;9.864;2024-02-16T00:46:17;98556.88;;;8.67;98.01
20710;BME280;10516;51.518;9.864;2024-02-16T00:48:43;98572.88;;;8.72;98.55
20710;BME280;10516;51.518;9.864;2024-02-16T00:51:08;98565.16;;;8.70;98.30
20710;BME280;10516;51.518;9.864;2024-02-16T00:53:34;98528.31;;;8.62;97.20
20710;BME280;10516;51.518;9.864;2024-02-16T00:55:59;98544.25;;;8.79;97.36
20710;BME280;10516;51.518;9.864;2024-02-16T00:58:24;98555.41;;;8.59;97.35
20710;BME280;10516;51.518;9.864;2024-02-16T01:00:50;98501.28;;;8.32;97.58
20710;BME280;10516;51.518;9.864;2024-02-16T01:03:15;98518.03;;;8.04;99.17
20710;BME280;10516;51.518;9.864;2024-02-16T01:05:40;98500.88;;;7.95;99.29
20710;BME280;10516;51.518;9.864;2024-02-16T01:08:06;98490.63;;;7.71;100.00
20710;BME280;10516;51.518;9.864;2024-02-16T01:10:32;98514.97;;;7.96;100.00
20710;BME280;10516;51.518;9.864;2024-02-16T01:12:57;98538.00;;;8.35;99.29
20710;BME280;10516;51.518;9.864;2024-02-16T01:15:23;98532.44;;;8.53;99.15
20710;BME280;10516;51.518;9.864;2024-02-16T01:17:48;98536.53;;;8.61;98.15
20710;BME280;10516;51.518;9.864;2024-02-16T01:20:14;98528.06;;;8.64;97.62
20710;BME280;10516;51.518;9.864;2024-02-16T01:22:39;98542.34;;;8.74;96.95
20710;BME280;10516;51.518;9.864;2024-02-16T01:25:06;98544.50;;;8.61;97.15
20710;BME280;10516;51.518;9.864;2024-02-16T01:27:32;98530.81;;;8.52;97.29
20710;BME280;10516;51.518;9.864;2024-02-16T01:29:57;98502.31;;;8.31;97.03
20710;BME280;10516;51.518;9.864;2024-02-16T01:32:23;98558.69;;;8.50;97.49
20710;BME280;10516;51.518;9.864;2024-02-16T01:34:49;98543.00;;;8.48;97.36
20710;BME280;10516;51.518;9.864;2024-02-16T01:37:15;98537.44;;;8.66;96.79
20710;BME280;10516;51.518;9.864;2024-02-16T01:39:40;98522.22;;;8.45;96.59
20710;BME280;10516;51.518;9.864;2024-02-16T01:42:06;98498.03;;;8.30;96.63
20710;BME280;10516;51.518;9.864;2024-02-16T01:44:31;98553.16;;;8.51;97.30
20710;BME280;10516;51.518;9.864;2024-02-16T01:46:57;98544.44;;;8.39;97.06
20710;BME280;10516;51.518;9.864;2024-02-16T01:49:22;98513.81;;;8.37;96.84
20710;BME280;10516;51.518;9.864;2024-02-16T01:51:48;98537.59;;;8.43;96.69
20710;BME280;10516;51.518;9.864;2024-02-16T01:54:14;98526.00;;;8.32;96.87
20710;BME280;10516;51.518;9.864;2024-02-16T01:56:43;98498.06;;;8.02;97.89
20710;BME280;10516;51.518;9.864;2024-02-16T01:59:09;98533.28;;;8.09;97.99
20710;BME280;10516;51.518;9.864;2024-02-16T02:01:34;98533.41;;;8.30;97.27
20710;BME280;10516;51.518;9.864;2024-02-16T02:04:00;98526.22;;;8.14;97.54
20710;BME280;10516;51.518;9.864;2024-02-16T02:06:26;98512.66;;;8.16;98.01
20710;BME280;10516;51.518;9.864;2024-02-16T02:08:51;98510.88;;;8.21;97.44
20710;BME280;10516;51.518;9.864;2024-02-16T02:11:17;98503.22;;;8.08;97.22
20710;BME280;10516;51.518;9.864;2024-02-16T02:13:42;98513.47;;;8.16;97.51
20710;BME280;10516;51.518;9.864;2024-02-16T02:16:10;98513.47;;;8.16;97.52
20710;BME280;10516;51.518;9.864;2024-02-16T02:18:35;98494.47;;;8.08;98.50
20710;BME280;10516;51.518;9.864;2024-02-16T02:21:00;98515.78;;;8.13;97.74
20710;BME280;10516;51.518;9.864;2024-02-16T02:23:26;98461.09;;;7.84;97.37
20710;BME280;10516;51.518;9.864;2024-02-16T02:25:51;98492.69;;;7.97;98.53
20710;BME280;10516;51.518;9.864;2024-02-16T02:28:16;98492.69;;;7.97;98.98
20710;BME280;10516;51.518;9.864;2024-02-16T02:30:43;98504.44;;;8.01;99.59
20710;BME280;10516;51.518;9.864;2024-02-16T02:33:10;98472.47;;;7.96;99.09
20710;BME280;10516;51.518;9.864;2024-02-16T02:35:38;98482.78;;;8.09;98.27
20710;BME280;10516;51.518;9.864;2024-02-16T02:38:03;98440.63;;;7.84;99.14
20710;BME280;10516;51.518;9.864;2024-02-16T02:40:30;98495.19;;;8.20;98.53
20710;BME280;10516;51.518;9.864;2024-02-16T02:42:55;98492.22;;;8.16;98.50
20710;BME280;10516;51.518;9.864;2024-02-16T02:45:20;98498.81;;;8.14;99.29
20710;BME280;10516;51.518;9.864;2024-02-16T02:47:46;98489.38;;;8.06;99.13
20710;BME280;10516;51.518;9.864;2024-02-16T02:50:11;98469.63;;;7.86;99.72
20710;BME280;10516;51.518;9.864;2024-02-16T02:52:37;98441.69;;;7.83;99.98
20710;BME280;10516;51.518;9.864;2024-02-16T02:55:03;98475.06;;;8.07;99.84
20710;BME280;10516;51.518;9.864;2024-02-16T02:57:28;98472.31;;;8.19;99.20
20710;BME280;10516;51.518;9.864;2024-02-16T03:00:02;98431.94;;;7.89;99.27
20710;BME280;10516;51.518;9.864;2024-02-16T03:02:29;98433.41;;;7.96;99.73
20710;BME280;10516;51.518;9.864;2024-02-16T03:04:54;98433.25;;;8.03;99.69
20710;BME280;10516;51.518;9.864;2024-02-16T03:07:20;98420.44;;;7.83;99.33
20710;BME280;10516;51.518;9.864;2024-02-16T03:09:45;98441.06;;;7.93;99.87
20710;BME280;10516;51.518;9.864;2024-02-16T03:12:11;98459.00;;;8.02;100.00
20710;BME280;10516;51.518;9.864;2024-02-16T03:14:37;98415.53;;;7.75;99.45
20710;BME280;10516;51.518;9.864;2024-02-16T03:17:02;98466.75;;;8.20;99.22
20710;BME280;10516;51.518;9.864;2024-02-16T03:19:29;98383.72;;;7.64;99.29
20710;BME280;10516;51.518;9.864;2024-02-16T03:21:54;98466.81;;;8.09;100.00
20710;BME280;10516;51.518;9.864;2024-02-16T03:24:20;98400.69;;;7.63;99.82
20710;BME280;10516;51.518;9.864;2024-02-16T03:26:47;98460.13;;;8.06;99.65
20710;BME280;10516;51.518;9.864;2024-02-16T03:29:12;98467.00;;;8.19;99.58
20710;BME280;10516;51.518;9.864;2024-02-16T03:31:38;98465.63;;;8.16;99.92
20710;BME280;10516;51.518;9.864;2024-02-16T03:34:03;98464.66;;;8.22;98.98
20710;BME280;10516;51.518;9.864;2024-02-16T03:36:29;98455.63;;;8.07;99.23
20710;BME280;10516;51.518;9.864;2024-02-16T03:38:56;98436.63;;;7.98;99.41
20710;BME280;10516;51.518;9.864;2024-02-16T03:41:22;98450.00;;;8.03;99.00
20710;BME280;10516;51.518;9.864;2024-02-16T03:43:48;98432.44;;;7.86;99.84
20710;BME280;10516;51.518;9.864;2024-02-16T03:46:13;98461.09;;;8.17;98.58
20710;BME280;10516;51.518;9.864;2024-02-16T03:48:39;98464.56;;;8.01;99.10
20710;BME280;10516;51.518;9.864;2024-02-16T03:51:07;98457.16;;;8.03;99.14
20710;BME280;10516;51.518;9.864;2024-02-16T03:53:33;98461.59;;;8.14;98.78
20710;BME280;10516;51.518;9.864;2024-02-16T03:55:59;98462.72;;;8.18;97.78
20710;BME280;10516;51.518;9.864;2024-02-16T03:58:24;98440.66;;;8.17;97.80
20710;BME280;10516;51.518;9.864;2024-02-16T04:00:50;98452.59;;;8.32;96.88
20710;BME280;10516;51.518;9.864;2024-02-16T04:03:16;98456.84;;;8.16;97.17
20710;BME280;10516;51.518;9.864;2024-02-16T04:05:42;98459.34;;;8.22;97.04
20710;BME280;10516;51.518;9.864;2024-02-16T04:08:07;98414.50;;;7.93;97.28
20710;BME280;10516;51.518;9.864;2024-02-16T04:10:33;98445.56;;;8.09;97.63
20710;BME280;10516;51.518;9.864;2024-02-16T04:12:59;98456.34;;;8.02;97.90
20710;BME280;10516;51.518;9.864;2024-02-16T04:15:25;98452.09;;;8.01;97.99
20710;BME280;10516;51.518;9.864;2024-02-16T04:17:51;98449.19;;;8.03;97.67
20710;BME280;10516;51.518;9.864;2024-02-16T04:20:16;98428.91;;;7.97;98.23
20710;BME280;10516;51.518;9.864;2024-02-16T04:22:43;98443.41;;;8.06;98.18
20710;BME280;10516;51.518;9.864;2024-02-16T04:25:08;98432.69;;;8.01;97.63
20710;BME280;10516;51.518;9.864;2024-02-16T04:27:35;98417.06;;;7.88;97.65
20710;BME280;10516;51.518;9.864;2024-02-16T04:30:01;98435.25;;;7.96;97.88
20710;BME280;10516;51.518;9.864;2024-02-16T04:32:26;98372.53;;;7.62;98.33
20710;BME280;10516;51.518;9.864;2024-02-16T04:34:52;98441.88;;;8.10;98.29
20710;BME280;10516;51.518;9.864;2024-02-16T04:37:18;98454.03;;;8.06;97.79
20710;BME280;10516;51.518;9.864;2024-02-16T04:39:46;98453.63;;;8.14;97.55
20710;BME280;10516;51.518;9.864;2024-02-16T04:42:12;98462.41;;;8.14;97.84
20710;BME280;10516;51.518;9.864;2024-02-16T04:44:38;98455.06;;;8.05;97.53
20710;BME280;10516;51.518;9.864;2024-02-16T04:47:04;98449.34;;;8.13;97.49
20710;BME280;10516;51.518;9.864;2024-02-16T04:49:29;98453.22;;;8.05;97.83
20710;BME280;10516;51.518;9.864;2024-02-16T04:51:55;98454.25;;;8.04;98.58
20710;BME280;10516;51.518;9.864;2024-02-16T04:54:20;98447.19;;;8.10;97.46
20710;BME280;10516;51.518;9.864;2024-02-16T04:56:46;98448.97;;;8.21;97.34
20710;BME280;10516;51.518;9.864;2024-02-16T04:59:11;98464.09;;;8.37;96.99
20710;BME280;10516;51.518;9.864;2024-02-16T05:01:37;98470.44;;;8.19;96.67
20710;BME280;10516;51.518;9.864;2024-02-16T05:04:02;98440.16;;;8.20;96.82
20710;BME280;10516;51.518;9.864;2024-02-16T05:06:28;98461.09;;;8.17;96.97
20710;BME280;10516;51.518;9.864;2024-02-16T05:08:56;98441.47;;;8.18;96.91
20710;BME280;10516;51.518;9.864;2024-02-16T05:11:22;98443.38;;;8.39;96.47
20710;BME280;10516;51.518;9.864;2024-02-16T05:13:50;98444.38;;;8.16;97.71
20710;BME280;10516;51.518;9.864;2024-02-16T05:16:15;98432.84;;;8.11;96.30
20710;BME280;10516;51.518;9.864;2024-02-16T05:18:42;98448.38;;;7.86;98.75
20710;BME280;10516;51.518;9.864;2024-02-16T05:21:07;98452.53;;;7.65;98.54
20710;BME280;10516;51.518;9.864;2024-02-16T05:23:33;98443.28;;;7.84;99.32
20710;BME280;10516;51.518;9.864;2024-02-16T05:25:58;98432.97;;;7.54;99.61
20710;BME280;10516;51.518;9.864;2024-02-16T05:28:24;98453.03;;;7.95;99.72
20710;BME280;10516;51.518;9.864;2024-02-16T05:30:49;98432.66;;;7.51;99.84
20710;BME280;10516;51.518;9.864;2024-02-16T05:33:15;98420.84;;;7.75;100.00
20710;BME280;10516;51.518;9.864;2024-02-16T05:35:40;98414.72;;;7.75;100.00
20710;BME280;10516;51.518;9.864;2024-02-16T05:38:06;98448.78;;;8.11;99.15
20710;BME280;10516;51.518;9.864;2024-02-16T05:40:49;98443.72;;;8.26;97.55
20710;BME280;10516;51.518;9.864;2024-02-16T05:43:22;98443.13;;;8.24;97.53
20710;BME280;10516;51.518;9.864;2024-02-16T05:45:49;98434.53;;;7.84;99.23
20710;BME280;10516;51.518;9.864;2024-02-16T05:48:14;98441.63;;;7.95;98.70
20710;BME280;10516;51.518;9.864;2024-02-16T05:50:40;98419.78;;;7.60;99.22
20710;BME280;10516;51.518;9.864;2024-02-16T05:53:06;98444.03;;;7.96;100.00
20710;BME280;10516;51.518;9.864;2024-02-16T05:55:32;98416.50;;;7.86;99.44
20710;BME280;10516;51.518;9.864;2024-02-16T05:57:57;98423.06;;;7.67;99.59
20710;BME280;10516;51.518;9.864;2024-02-16T06:00:23;98430.03;;;8.01;99.47
20710;BME280;10516;51.518;9.864;2024-02-16T06:02:49;98421.50;;;8.32;97.88
20710;BME280;10516;51.518;9.864;2024-02-16T06:05:15;98431.00;;;8.28;97.02
20710;BME280;10516;51.518;9.864;2024-02-16T06:07:40;98442.91;;;8.42;96.81
20710;BME280;10516;51.518;9.864;2024-02-16T06:10:06;98446.47;;;8.31;97.16
20710;BME280;10516;51.518;9.864;2024-02-16T06:12:39;98445.19;;;8.34;97.34
20710;BME280;10516;51.518;9.864;2024-02-16T06:15:05;98430.34;;;8.21;96.97
20710;BME280;10516;51.518;9.864;2024-02-16T06:17:30;98437.75;;;8.19;97.47
20710;BME280;10516;51.518;9.864;2024-02-16T06:19:56;98447.59;;;8.18;98.44
20710;BME280;10516;51.518;9.864;2024-02-16T06:22:21;98442.25;;;8.02;99.49
20710;BME280;10516;51.518;9.864;2024-02-16T06:24:47;98442.28;;;8.35;97.94
20710;BME280;10516;51.518;9.864;2024-02-16T06:27:12;98447.75;;;8.12;98.27
20710;BME280;10516;51.518;9.864;2024-02-16T06:29:38;98461.59;;;8.30;97.81
20710;BME280;10516;51.518;9.864;2024-02-16T06:32:04;98437.75;;;8.02;97.70
20710;BME280;10516;51.518;9.864;2024-02-16T06:34:30;98461.06;;;8.45;97.08
20710;BME280;10516;51.518;9.864;2024-02-16T06:36:56;98435.97;;;7.75;99.10
20710;BME280;10516;51.518;9.864;2024-02-16T06:39:21;98472.59;;;7.73;100.00
20710;BME280;10516;51.518;9.864;2024-02-16T06:41:47;98488.91;;;7.93;100.00
20710;BME280;10516;51.518;9.864;2024-02-16T06:44:13;98478.34;;;7.98;99.25
20710;BME280;10516;51.518;9.864;2024-02-16T06:46:38;98486.53;;;7.80;100.00
20710;BME280;10516;51.518;9.864;2024-02-16T06:49:04;98481.91;;;8.20;98.63
20710;BME280;10516;51.518;9.864;2024-02-16T06:51:29;98481.91;;;8.37;98.40
20710;BME280;10516;51.518;9.864;2024-02-16T06:53:55;98471.75;;;8.50;96.53
20710;BME280;10516;51.518;9.864;2024-02-16T06:56:20;98474.50;;;8.55;96.50
20710;BME280;10516;51.518;9.864;2024-02-16T06:58:46;98464.06;;;8.32;97.27
20710;BME280;10516;51.518;9.864;2024-02-16T07:01:13;98470.75;;;8.56;97.29
20710;BME280;10516;51.518;9.864;2024-02-16T07:03:38;98375.81;;;8.02;96.43
20710;BME280;10516;51.518;9.864;2024-02-16T07:06:04;98439.19;;;8.43;96.66
20710;BME280;10516;51.518;9.864;2024-02-16T07:08:33;98434.84;;;8.37;96.32
20710;BME280;10516;51.518;9.864;2024-02-16T07:10:58;98454.66;;;8.46;96.28
20710;BME280;10516;51.518;9.864;2024-02-16T07:13:24;98448.53;;;8.62;95.62
20710;BME280;10516;51.518;9.864;2024-02-16T07:15:49;98473.03;;;8.64;96.00
20710;BME280;10516;51.518;9.864;2024-02-16T07:18:15;98440.44;;;8.36;97.12
20710;BME280;10516;51.518;9.864;2024-02-16T07:20:41;98430.44;;;8.26;96.20
20710;BME280;10516;51.518;9.864;2024-02-16T07:23:06;98473.84;;;8.48;96.98
20710;BME280;10516;51.518;9.864;2024-02-16T07:25:31;98458.94;;;8.30;96.57
20710;BME280;10516;51.518;9.864;2024-02-16T07:27:57;98493.19;;;8.44;96.92
20710;BME280;10516;51.518;9.864;2024-02-16T07:30:22;98499.16;;;8.51;97.66
20710;BME280;10516;51.518;9.864;2024-02-16T07:32:49;98423.50;;;8.08;97.01
20710;BME280;10516;51.518;9.864;2024-02-16T07:35:15;98465.63;;;8.16;96.86
20710;BME280;10516;51.518;9.864;2024-02-16T07:37:41;98449.22;;;8.36;97.38
20710;BME280;10516;51.518;9.864;2024-02-16T07:40:08;98492.41;;;8.26;97.99
20710;BME280;10516;51.518;9.864;2024-02-16T07:42:38;98479.88;;;8.44;98.00
20710;BME280;10516;51.518;9.864;2024-02-16T07:45:04;98472.06;;;8.20;97.89
20710;BME280;10516;51.518;9.864;2024-02-16T07:47:31;98503.19;;;8.37;98.20
20710;BME280;10516;51.518;9.864;2024-02-16T07:49:57;98491.72;;;8.53;97.53
20710;BME280;10516;51.518;9.864;2024-02-16T07:52:22;98428.19;;;8.01;97.77
20710;BME280;10516;51.518;9.864;2024-02-16T07:54:47;98497.22;;;8.46;98.39
20710;BME280;10516;51.518;9.864;2024-02-16T07:57:13;98488.03;;;8.37;96.94
20710;BME280;10516;51.518;9.864;2024-02-16T07:59:40;98482.56;;;8.44;97.55
20710;BME280;10516;51.518;9.864;2024-02-16T08:02:05;98501.38;;;8.59;97.46
20710;BME280;10516;51.518;9.864;2024-02-16T08:04:32;98501.81;;;8.51;99.24
20710;BME280;10516;51.518;9.864;2024-02-16T08:06:58;98479.72;;;8.50;97.47
20710;BME280;10516;51.518;9.864;2024-02-16T08:09:23;98458.53;;;8.55;96.59
20710;BME280;10516;51.518;9.864;2024-02-16T08:11:48;98490.66;;;8.70;96.71
20710;BME280;10516;51.518;9.864;2024-02-16T08:14:14;98479.16;;;8.65;97.76
20710;BME280;10516;51.518;9.864;2024-02-16T08:16:39;98496.78;;;8.71;97.01
20710;BME280;10516;51.518;9.864;2024-02-16T08:19:04;98486.38;;;8.69;97.80
20710;BME280;10516;51.518;9.864;2024-02-16T08:21:30;98503.72;;;8.72;98.18
20710;BME280;10516;51.518;9.864;2024-02-16T08:23:56;98473.50;;;8.61;97.88
20710;BME280;10516;51.518;9.864;2024-02-16T08:26:21;98524.56;;;8.96;96.20
20710;BME280;10516;51.518;9.864;2024-02-16T08:28:48;98533.19;;;9.03;95.74
20710;BME280;10516;51.518;9.864;2024-02-16T08:31:17;98527.53;;;9.00;96.21
20710;BME280;10516;51.518;9.864;2024-02-16T08:33:44;98535.19;;;8.96;97.21
20710;BME280;10516;51.518;9.864;2024-02-16T08:36:10;98528.25;;;8.95;96.88
20710;BME280;10516;51.518;9.864;2024-02-16T08:38:36;98523.56;;;9.02;96.80
20710;BME280;10516;51.518;9.864;2024-02-16T08:41:02;98482.81;;;8.80;96.75
20710;BME280;10516;51.518;9.864;2024-02-16T08:43:28;98510.81;;;9.04;97.22
20710;BME280;10516;51.518;9.864;2024-02-16T08:45:54;98520.13;;;9.24;96.35
20710;BME280;10516;51.518;9.864;2024-02-16T08:48:19;98513.81;;;8.91;98.89
20710;BME280;10516;51.518;9.864;2024-02-16T08:50:45;98523.47;;;9.14;96.97
20710;BME280;10516;51.518;9.864;2024-02-16T08:53:11;98531.34;;;9.26;95.73
20710;BME280;10516;51.518;9.864;2024-02-16T08:55:36;98485.94;;;9.16;94.69
20710;BME280;10516;51.518;9.864;2024-02-16T08:58:01;98491.06;;;9.22;95.18
20710;BME280;10516;51.518;9.864;2024-02-16T09:00:27;98522.53;;;9.47;94.92
20710;BME280;10516;51.518;9.864;2024-02-16T09:02:53;98484.78;;;9.28;95.01
20710;BME280;10516;51.518;9.864;2024-02-16T09:05:20;98516.72;;;9.50;94.86
20710;BME280;10516;51.518;9.864;2024-02-16T09:07:45;98514.06;;;9.50;95.74
20710;BME280;10516;51.518;9.864;2024-02-16T09:10:12;98508.94;;;9.48;95.79
20710;BME280;10516;51.518;9.864;2024-02-16T09:12:39;98512.50;;;9.54;95.64
20710;BME280;10516;51.518;9.864;2024-02-16T09:15:05;98505.53;;;9.53;95.75
20710;BME280;10516;51.518;9.864;2024-02-16T09:17:31;98520.59;;;9.64;95.07
20710;BME280;10516;51.518;9.864;2024-02-16T09:19:56;98518.53;;;9.71;94.89
20710;BME280;10516;51.518;9.864;2024-02-16T09:22:22;98497.63;;;9.58;94.84
20710;BME280;10516;51.518;9.864;2024-02-16T09:24:48;98509.66;;;9.65;95.34
20710;BME280;10516;51.518;9.864;2024-02-16T09:27:13;98496.53;;;9.59;94.23
20710;BME280;10516;51.518;9.864;2024-02-16T09:29:39;98499.16;;;9.54;95.60
20710;BME280;10516;51.518;9.864;2024-02-16T09:32:05;98517.78;;;9.75;95.08
20710;BME280;10516;51.518;9.864;2024-02-16T09:34:31;98504.41;;;9.70;94.62
20710;BME280;10516;51.518;9.864;2024-02-16T09:36:56;98470.91;;;9.53;94.38
20710;BME280;10516;51.518;9.864;2024-02-16T09:39:22;98509.19;;;9.68;94.57
20710;BME280;10516;51.518;9.864;2024-02-16T09:41:50;98510.91;;;9.79;93.73
20710;BME280;10516;51.518;9.864;2024-02-16T09:44:20;98506.88;;;9.77;94.19
20710;BME280;10516;51.518;9.864;2024-02-16T09:46:46;98489.13;;;9.61;94.00
20710;BME280;10516;51.518;9.864;2024-02-16T09:49:12;98545.22;;;9.98;93.72
20710;BME280;10516;51.518;9.864;2024-02-16T09:51:37;98519.19;;;9.83;94.71
20710;BME280;10516;51.518;9.864;2024-02-16T09:54:03;98528.69;;;10.01;94.37
20710;BME280;10516;51.518;9.864;2024-02-16T09:56:28;98507.41;;;9.79;94.91
20710;BME280;10516;51.518;9.864;2024-02-16T09:58:54;98535.91;;;10.00;95.26
20710;BME280;10516;51.518;9.864;2024-02-16T10:01:21;98517.44;;;9.94;94.63
20710;BME280;10516;51.518;9.864;2024-02-16T10:03:47;98526.28;;;9.99;94.02
20710;BME280;10516;51.518;9.864;2024-02-16T10:06:13;98525.81;;;10.07;93.62
20710;BME280;10516;51.518;9.864;2024-02-16T10:08:53;98460.66;;;9.66;93.62
20710;BME280;10516;51.518;9.864;2024-02-16T10:11:21;98536.19;;;10.04;94.85
20710;BME280;10516;51.518;9.864;2024-02-16T10:14:03;98537.13;;;10.14;94.61
20710;BME280;10516;51.518;9.864;2024-02-16T10:16:30;98537.19;;;10.24;93.21
20710;BME280;10516;51.518;9.864;2024-02-16T10:18:56;98543.34;;;10.25;93.28
20710;BME280;10516;51.518;9.864;2024-02-16T10:21:29;98546.34;;;10.33;93.74
20710;BME280;10516;51.518;9.864;2024-02-16T10:24:21;98542.69;;;10.39;92.99
20710;BME280;10516;51.518;9.864;2024-02-16T10:26:46;98511.13;;;10.31;92.45
20710;BME280;10516;51.518;9.864;2024-02-16T10:29:12;98533.13;;;10.48;92.81
20710;BME280;10516;51.518;9.864;2024-02-16T10:31:39;98520.59;;;10.49;92.10
20710;BME280;10516;51.518;9.864;2024-02-16T10:34:05;98496.00;;;10.42;92.38
20710;BME280;10516;51.518;9.864;2024-02-16T10:36:33;98459.94;;;10.34;92.31
20710;BME280;10516;51.518;9.864;2024-02-16T10:38:59;98484.34;;;10.53;91.61
20710;BME280;10516;51.518;9.864;2024-02-16T10:41:28;98524.91;;;10.92;92.28
20710;BME280;10516;51.518;9.864;2024-02-16T10:43:56;98515.78;;;10.83;92.32
20710;BME280;10516;51.518;9.864;2024-02-16T10:46:22;98512.34;;;10.87;92.17
20710;BME280;10516;51.518;9.864;2024-02-16T10:48:49;98517.19;;;10.95;90.84
20710;BME280;10516;51.518;9.864;2024-02-16T10:51:17;98522.06;;;11.08;90.77
20710;BME280;10516;51.518;9.864;2024-02-16T10:53:45;98523.41;;;11.11;91.30
20710;BME280;10516;51.518;9.864;2024-02-16T10:56:13;98514.06;;;11.13;91.96
20710;BME280;10516;51.518;9.864;2024-02-16T10:58:38;98534.34;;;11.09;91.91
20710;BME280;10516;51.518;9.864;2024-02-16T11:01:09;98520.69;;;11.06;91.46
20710;BME280;10516;51.518;9.864;2024-02-16T11:03:38;98527.97;;;11.20;91.08
20710;BME280;10516;51.518;9.864;2024-02-16T11:06:17;98524.56;;;11.30;90.85
20710;BME280;10516;51.518;9.864;2024-02-16T11:08:48;98535.75;;;11.22;90.45
20710;BME280;10516;51.518;9.864;2024-02-16T11:11:23;98505.44;;;10.96;91.56
20710;BME280;10516;51.518;9.864;2024-02-16T11:13:48;98446.28;;;10.68;90.28
20710;BME280;10516;51.518;9.864;2024-02-16T11:16:14;98526.97;;;11.26;91.66
20710;BME280;10516;51.518;9.864;2024-02-16T11:18:43;98509.00;;;11.17;91.65
20710;BME280;10516;51.518;9.864;2024-02-16T11:21:14;98508.78;;;11.23;91.63
20710;BME280;10516;51.518;9.864;2024-02-16T11:23:40;98508.81;;;11.28;90.50
20710;BME280;10516;51.518;9.864;2024-02-16T11:26:10;98524.66;;;11.60;89.44
20710;BME280;10516;51.518;9.864;2024-02-16T11:28:37;98538.66;;;11.72;89.84
20710;BME280;10516;51.518;9.864;2024-02-16T11:31:03;98530.78;;;11.46;90.35
20710;BME280;10516;51.518;9.864;2024-02-16T11:33:30;98523.03;;;11.49;89.02
20710;BME280;10516;51.518;9.864;2024-02-16T11:35:57;98528.94;;;11.56;88.12
20710;BME280;10516;51.518;9.864;2024-02-16T11:38:23;98501.13;;;11.52;88.02
20710;BME280;10516;51.518;9.864;2024-02-16T11:41:03;98525.31;;;11.82;87.03
20710;BME280;10516;51.518;9.864;2024-02-16T11:43:30;98529.06;;;11.81;86.66
20710;BME280;10516;51.518;9.864;2024-02-16T11:45:55;98531.19;;;11.74;87.14
20710;BME280;10516;51.518;9.864;2024-02-16T11:48:22;98519.09;;;11.67;87.80
20710;BME280;10516;51.518;9.864;2024-02-16T11:50:48;98520.75;;;11.78;87.02
20710;BME280;10516;51.518;9.864;2024-02-16T11:53:18;98530.66;;;11.87;86.43
20710;BME280;10516;51.518;9.864;2024-02-16T11:55:49;98520.81;;;12.03;85.51
20710;BME280;10516;51.518;9.864;2024-02-16T11:58:19;98516.25;;;11.98;85.75
20710;BME280;10516;51.518;9.864;2024-02-16T12:00:45;98509.31;;;12.23;85.24
20710;BME280;10516;51.518;9.864;2024-02-16T12:03:18;98508.53;;;12.12;85.71
20710;BME280;10516;51.518;9.864;2024-02-16T12:05:51;98516.00;;;12.30;85.53
20710;BME280;10516;51.518;9.864;2024-02-16T12:08:17;98512.00;;;12.38;84.74
20710;BME280;10516;51.518;9.864;2024-02-16T12:10:44;98494.34;;;12.12;85.32
20710;BME280;10516;51.518;9.864;2024-02-16T12:13:09;98528.84;;;12.33;85.66
20710;BME280;10516;51.518;9.864;2024-02-16T12:15:37;98530.72;;;12.33;85.41
20710;BME280;10516;51.518;9.864;2024-02-16T12:18:03;98522.69;;;12.28;85.75
20710;BME280;10516;51.518;9.864;2024-02-16T12:20:29;98528.31;;;12.41;84.83
20710;BME280;10516;51.518;9.864;2024-02-16T12:22:56;98528.03;;;12.43;85.28
20710;BME280;10516;51.518;9.864;2024-02-16T12:25:21;98509.56;;;12.36;85.06
20710;BME280;10516;51.518;9.864;2024-02-16T12:27:47;98532.34;;;12.44;85.54
20710;BME280;10516;51.518;9.864;2024-02-16T12:30:13;98510.38;;;12.42;85.56
20710;BME280;10516;51.518;9.864;2024-02-16T12:32:38;98528.03;;;12.48;85.52
20710;BME280;10516;51.518;9.864;2024-02-16T12:35:04;98490.06;;;12.06;85.38
20710;BME280;10516;51.518;9.864;2024-02-16T12:37:30;98513.06;;;12.27;84.90
20710;BME280;10516;51.518;9.864;2024-02-16T12:39:56;98529.13;;;12.37;85.00
20710;BME280;10516;51.518;9.864;2024-02-16T12:42:21;98518.66;;;12.15;85.67
20710;BME280;10516;51.518;9.864;2024-02-16T12:44:46;98530.44;;;12.09;86.16
20710;BME280;10516;51.518;9.864;2024-02-16T12:47:12;98524.28;;;11.98;86.12
20710;BME280;10516;51.518;9.864;2024-02-16T12:49:37;98466.41;;;11.57;86.05
20710;BME280;10516;51.518;9.864;2024-02-16T12:52:03;98500.69;;;11.70;86.70
20710;BME280;10516;51.518;9.864;2024-02-16T12:54:28;98532.50;;;11.82;87.02
20710;BME280;10516;51.518;9.864;2024-02-16T12:56:53;98535.22;;;11.87;87.46
20710;BME280;10516;51.518;9.864;2024-02-16T12:59:19;98482.97;;;11.59;87.61
20710;BME280;10516;51.518;9.864;2024-02-16T13:01:44;98534.16;;;11.93;87.48